Ghent, Kentucky
Current Conditions -  °F | °C
As of 8:52 AM on Friday 31 Oct 2014 (Local Time) from KCVG Reporting Station
Overcast Overcast  
Wind Chill: 44°   Ceiling: 4500
Heat Index: 44°   Visibility: 10mi
Dew Point: 39°   Wind: 3mph
Humidity: 82%   Direction: 250°WSW
Pressure: 29.97"   Gusts: NA
Location:  38.74°N, 85.06°W
Report Text: KCVG 311252Z 25003KT 10SM BKN045 OVC120 07/04 A2997 RMK AO2 SLP149 BINOVC T00670039
Loading
Personal Weather Stations






























Interactive Weather Map
Tropical Storm Tracking
New forecast layout! Learn more

10-Day Weather Forecast

Advertisements
Track Severe Weather on mobile